No Name, Colorado
Current Conditions -  °F | °C
As of 2:35 AM on Thursday 18 Dec 2014 (Local Time) from KEGE Reporting Station
Overcast Overcast  
Wind Chill: 25°   Ceiling: 5000
Heat Index: 25°   Visibility: 7mi
Dew Point: 25°   Wind: 0mph
Humidity: 100%   Direction: NA
Pressure: 30.08"   Gusts: NA
Location:  39.6119°N, 107.29°W
Report Text: KEGE 180935Z AUTO 00000KT 7SM FEW016 SCT035 OVC050 M04/M04 A3008 RMK AO1
Loading
Personal Weather Stations






























Interactive Weather Map New forecast layout! Learn more

10-Day Weather Forecast

Advertisements
Track Severe Weather on mobile